Terminal Aerodrome Forecast
Issued by NWS

Home | Current Version | Previous Version | Text Only | Print | Product List | Glossary On
Versions: 1 2 3 4 5 6 7 8 9 10 11 12
935
FTUS46 KSTO 241129
TAFSMF
TAF
KSMF 241129Z 2412/2512 14008KT P6SM VCSH BKN050
     FM242100 34007KT P6SM SCT250
     FM251000 10003KT 5SM BR SCT003=

USA.gov is the U.S. government's official web portal to all federal, state and local government web resources and services.